Time;durP1;ratioP1;P1;durP2;ratioP2;P2;SDS_P1;SDS_P2;PMS_P1;PMS_P2;Temp;Humidity;BMP_temperature;BMP_pressure;BME280_temperature;BME280_humidity;BME280_pressure;Samples;Min_cycle;Max_cycle;Signal;HPM_P1;HPM_P2
2021/09/06 00:00:27;;;;;;;;;;;;;;;;;;2088452;28;2032;-84
2021/09/06 00:01:30;;;;;;;;;;;;;;;;;;2098906;28;1210;-84
2021/09/06 00:02:31;;;;;;;;;;;;;;;;;;2091023;28;1738;-83
2021/09/06 00:03:33;;;;;;;;;;;;;;;;;;2098891;28;1393;-84
2021/09/06 00:04:34;;;;;;;;;;;;;;;;;;2098193;28;1332;-84
2021/09/06 00:05:36;;;;;;;;;;;;;;;;;;2097546;28;1956;-84
2021/09/06 00:06:39;;;;;;;;;;;;;;;;;;2090865;28;1455;-84
2021/09/06 00:07:43;;;;;;;;;;;;;;;;;;2090250;28;2055;-84
2021/09/06 00:08:44;;;;;;;;;;;;;;;;;;2090796;28;1973;-84
2021/09/06 00:09:49;;;;;;;;;;;;;;;;;;2091069;28;1874;-85
2021/09/06 00:10:59;;;;;;;;;;;;;;;;;;2090841;28;1341;-84
2021/09/06 00:12:01;;;;;;;;;;;;;;;;;;2090504;28;855;-84
2021/09/06 00:13:02;;;;;;;;;;;;;;;;;;2090511;28;1289;-84
2021/09/06 00:14:04;;;;;;;;;;;;;;;;;;2082563;28;1241;-84
2021/09/06 00:15:05;;;;;;;;;;;;;;;;;;2090286;28;1825;-84
2021/09/06 00:16:07;;;;;;;;;;;;;;;;;;2090798;28;1284;-84
2021/09/06 00:17:10;;;;;;;;;;;;;;;;;;2090717;28;1262;-84
2021/09/06 00:18:11;;;;;;;;;;;;;;;;;;2082003;28;1265;-84
2021/09/06 00:19:12;;;;;;;;;;;;;;;;;;2090593;28;875;-84
2021/09/06 00:20:14;;;;;;;;;;;;;;;;;;2095657;28;1865;-84
2021/09/06 00:21:16;;;;;;;;;;;;;;;;;;2092298;28;1231;-84
2021/09/06 00:22:16;;;;;;;;;;;;;;;;;;2090944;28;2027;-84
2021/09/06 00:23:18;;;;;;;;;;;;;;;;;;2084023;28;1108;-84
2021/09/06 00:24:19;;;;;;;;;;;;;;;;;;2083975;28;1227;-85
2021/09/06 00:25:21;;;;;;;;;;;;;;;;;;2088778;28;1905;-84
2021/09/06 00:26:23;;;;;;;;;;;;;;;;;;2100562;28;1309;-84
2021/09/06 00:27:24;;;;;;;;;;;;;;;;;;2093748;28;2053;-84
2021/09/06 00:28:27;;;;;;;;;;;;;;;;;;2091984;28;1905;-84
2021/09/06 00:29:28;;;;;;;;;;;;;;;;;;2083819;28;1661;-84
2021/09/06 00:30:30;;;;;;;;;;;;;;;;;;2083780;28;1319;-83
2021/09/06 00:31:30;;;;;;;;;;;;;;;;;;2084110;28;1373;-84
2021/09/06 00:32:34;;;;;;;;;;;;;;;;;;2083629;28;1507;-84
2021/09/06 00:33:35;;;;;;;;;;;;;;;;;;2083900;28;1147;-84
2021/09/06 00:34:36;;;;;;;;;;;;;;;;;;2092309;28;831;-84
2021/09/06 00:35:38;;;;;;;;;;;;;;;;;;2099345;28;1932;-84
2021/09/06 00:36:38;;;;;;;;;;;;;;;;;;2100484;28;1344;-84
2021/09/06 00:37:41;;;;;;;;;;;;;;;;;;2099065;28;2104;-84
2021/09/06 00:38:42;;;;;;;;;;;;;;;;;;2092524;28;1368;-84
2021/09/06 00:39:44;;;;;;;;;;;;;;;;;;2083591;28;1866;-85
2021/09/06 00:40:45;;;;;;;;;;;;;;;;;;2100515;28;800;-84
2021/09/06 00:41:47;;;;;;;;;;;;;;;;;;2092153;28;1290;-84
2021/09/06 00:42:47;;;;;;;;;;;;;;;;;;2092482;28;1316;-84
2021/09/06 00:43:50;;;;;;;;;;;;;;;;;;2083096;28;1215;-84
2021/09/06 00:44:50;;;;;;;;;;;;;;;;;;2085202;28;1894;-84
2021/09/06 00:45:52;;;;;;;;;;;;;;;;;;2092222;28;1364;-85
2021/09/06 00:46:55;;;;;;;;;;;;;;;;;;2100028;28;1464;-84
2021/09/06 00:47:58;;;;;;;;;;;;;;;;;;2092662;28;1649;-82
2021/09/06 00:48:59;;;;;;;;;;;;;;;;;;2092296;28;1901;-84
2021/09/06 00:50:02;;;;;;;;;;;;;;;;;;2092650;28;1430;-85
2021/09/06 00:51:04;;;;;;;;;;;;;;;;;;2092711;28;1337;-85
2021/09/06 00:52:05;;;;;;;;;;;;;;;;;;2100467;28;1272;-85
2021/09/06 00:53:07;;;;;;;;;;;;;;;;;;2092678;28;1447;-84
2021/09/06 00:54:09;;;;;;;;;;;;;;;;;;2100736;28;1249;-84
2021/09/06 00:55:10;;;;;;;;;;;;;;;;;;2092246;28;1281;-84
2021/09/06 00:56:13;;;;;;;;;;;;;;;;;;2092192;28;1338;-85
2021/09/06 00:57:14;;;;;;;;;;;;;;;;;;2092545;28;1214;-85
2021/09/06 00:58:16;;;;;;;;;;;;;;;;;;2100508;28;1412;-85
2021/09/06 00:59:18;;;;;;;;;;;;;;;;;;2100637;28;793;-84
2021/09/06 01:00:20;;;;;;;;;;;;;;;;;;2100418;28;1972;-86
2021/09/06 01:01:22;;;;;;;;;;;;;;;;;;2100794;28;1202;-85
2021/09/06 01:02:24;;;;;;;;;;;;;;;;;;2092032;28;1826;-84
2021/09/06 01:03:27;;;;;;;;;;;;;;;;;;2092611;28;1448;-85
2021/09/06 01:04:30;;;;;;;;;;;;;;;;;;2100472;28;1269;-85
2021/09/06 01:05:52;;;;;;;;;;;;;;;;;;2100412;28;1368;-84
2021/09/06 01:06:55;;;;;;;;;;;;;;;;;;2101114;28;804;-84
2021/09/06 01:08:33;;;;;;;;;;;;;;;;;;2091783;28;1977;-84
2021/09/06 01:09:57;;;;;;;;;;;;;;;;;;2083529;28;1287;-85
2021/09/06 01:11:07;;;;;;;;;;;;;;;;;;2087647;28;1161;-84
2021/09/06 01:12:41;;;;;;;;;;;;;;;;;;2096518;28;1219;-83
2021/09/06 01:13:42;;;;;;;;;;;;;;;;;;2100191;28;1481;-84
2021/09/06 01:14:49;;;;;;;;;;;;;;;;;;2100763;28;885;-84
2021/09/06 01:15:49;;;;;;;;;;;;;;;;;;2100322;28;1181;-84
2021/09/06 01:16:51;;;;;;;;;;;;;;;;;;2100674;28;1139;-84
2021/09/06 01:17:52;;;;;;;;;;;;;;;;;;2092198;28;1216;-83
2021/09/06 01:18:55;;;;;;;;;;;;;;;;;;2092228;28;1381;-84
2021/09/06 01:19:56;;;;;;;;;;;;;;;;;;2100395;28;1447;-85
2021/09/06 01:20:58;;;;;;;;;;;;;;;;;;2092520;28;1242;-84
2021/09/06 01:22:12;;;;;;;;;;;;;;;;;;2094047;28;1464;-85
2021/09/06 01:23:17;;;;;;;;;;;;;;;;;;2092851;28;1214;-85
2021/09/06 01:24:42;;;;;;;;;;;;;;;;;;2094862;28;1047;-84
2021/09/06 01:25:51;;;;;;;;;;;;;;;;;;2100788;28;1389;-84
2021/09/06 01:26:52;;;;;;;;;;;;;;;;;;2092222;28;1374;-85
2021/09/06 01:27:57;;;;;;;;;;;;;;;;;;2092590;28;1266;-85
2021/09/06 01:29:00;;;;;;;;;;;;;;;;;;2092302;28;1971;-85
2021/09/06 01:30:07;;;;;;;;;;;;;;;;;;2100245;28;1461;-85
2021/09/06 01:31:07;;;;;;;;;;;;;;;;;;2099839;28;1254;-85
2021/09/06 01:32:16;;;;;;;;;;;;;;;;;;2099937;28;1158;-85
2021/09/06 01:33:20;;;;;;;;;;;;;;;;;;2092477;28;1243;-85
2021/09/06 01:34:22;;;;;;;;;;;;;;;;;;2091968;28;1449;-85
2021/09/06 01:35:27;;;;;;;;;;;;;;;;;;2092583;28;1318;-85
2021/09/06 01:36:30;;;;;;;;;;;;;;;;;;2100742;28;1279;-85
2021/09/06 01:37:34;;;;;;;;;;;;;;;;;;2092397;28;1290;-85
2021/09/06 01:38:35;;;;;;;;;;;;;;;;;;2092144;28;1222;-85
2021/09/06 01:39:38;;;;;;;;;;;;;;;;;;2100229;28;1400;-85
2021/09/06 01:40:41;;;;;;;;;;;;;;;;;;2092335;28;1380;-85
2021/09/06 01:41:48;;;;;;;;;;;;;;;;;;2092469;28;1378;-85
2021/09/06 01:42:50;;;;;;;;;;;;;;;;;;2092609;28;1371;-85
2021/09/06 01:43:55;;;;;;;;;;;;;;;;;;2100223;28;1438;-84
2021/09/06 01:45:01;;;;;;;;;;;;;;;;;;2099923;28;1325;-85
2021/09/06 01:46:05;;;;;;;;;;;;;;;;;;2092416;28;1243;-85
2021/09/06 01:47:08;;;;;;;;;;;;;;;;;;2091029;28;2090;-84
2021/09/06 01:48:11;;;;;;;;;;;;;;;;;;2091577;28;1472;-85
2021/09/06 01:49:19;;;;;;;;;;;;;;;;;;2084856;28;1977;-84
2021/09/06 01:50:24;;;;;;;;;;;;;;;;;;2088070;28;1933;-85
2021/09/06 01:51:28;;;;;;;;;;;;;;;;;;2084378;28;1267;-85
2021/09/06 01:52:30;;;;;;;;;;;;;;;;;;2089548;28;2067;-84
2021/09/06 01:53:34;;;;;;;;;;;;;;;;;;2092313;28;1622;-85
2021/09/06 01:54:37;;;;;;;;;;;;;;;;;;2091809;28;1327;-85
2021/09/06 01:55:40;;;;;;;;;;;;;;;;;;2091444;28;1437;-85
2021/09/06 01:56:48;;;;;;;;;;;;;;;;;;2091478;28;1110;-84
2021/09/06 01:57:50;;;;;;;;;;;;;;;;;;2083650;28;1312;-84
2021/09/06 01:58:55;;;;;;;;;;;;;;;;;;2083526;28;1353;-85
2021/09/06 01:59:55;;;;;;;;;;;;;;;;;;2084919;28;1882;-85
2021/09/06 02:01:00;;;;;;;;;;;;;;;;;;2083558;28;1333;-85
2021/09/06 02:02:10;;;;;;;;;;;;;;;;;;2086908;28;1897;-85
2021/09/06 02:03:14;;;;;;;;;;;;;;;;;;2092317;28;1634;-84
2021/09/06 02:04:23;;;;;;;;;;;;;;;;;;2091390;28;1394;-85
2021/09/06 02:05:24;;;;;;;;;;;;;;;;;;2088720;28;1909;-85
2021/09/06 02:06:28;;;;;;;;;;;;;;;;;;2091907;28;1319;-84
2021/09/06 02:07:33;;;;;;;;;;;;;;;;;;2092132;28;2109;-85
2021/09/06 02:08:35;;;;;;;;;;;;;;;;;;2091747;28;1452;-84
2021/09/06 02:09:36;;;;;;;;;;;;;;;;;;2091263;28;1974;-85
2021/09/06 02:10:41;;;;;;;;;;;;;;;;;;2099234;28;1900;-85
2021/09/06 02:11:44;;;;;;;;;;;;;;;;;;2091179;28;2062;-85
2021/09/06 02:12:49;;;;;;;;;;;;;;;;;;2091640;28;1369;-84
2021/09/06 02:13:54;;;;;;;;;;;;;;;;;;2091287;28;1273;-84
2021/09/06 02:14:55;;;;;;;;;;;;;;;;;;2092989;28;2008;-85
2021/09/06 02:15:56;;;;;;;;;;;;;;;;;;2099634;28;1136;-85
2021/09/06 02:17:01;;;;;;;;;;;;;;;;;;2091362;28;2065;-85
2021/09/06 02:18:08;;;;;;;;;;;;;;;;;;2091095;28;1033;-85
2021/09/06 02:19:11;;;;;;;;;;;;;;;;;;2091855;28;1274;-85
2021/09/06 02:20:18;;;;;;;;;;;;;;;;;;2091356;28;1918;-84
2021/09/06 02:21:19;;;;;;;;;;;;;;;;;;2091648;28;1413;-85
2021/09/06 02:22:24;;;;;;;;;;;;;;;;;;2098756;28;2053;-85
2021/09/06 02:23:30;;;;;;;;;;;;;;;;;;2099744;28;1451;-84
2021/09/06 02:24:34;;;;;;;;;;;;;;;;;;2091632;28;1357;-84
2021/09/06 02:25:42;;;;;;;;;;;;;;;;;;2084706;28;1281;-84
2021/09/06 02:26:44;;;;;;;;;;;;;;;;;;2083163;28;2017;-84
2021/09/06 02:27:45;;;;;;;;;;;;;;;;;;2091398;28;1277;-84
2021/09/06 02:28:53;;;;;;;;;;;;;;;;;;2090952;28;1338;-83
2021/09/06 02:29:55;;;;;;;;;;;;;;;;;;2091436;28;1197;-85
2021/09/06 02:31:00;;;;;;;;;;;;;;;;;;2091397;28;1452;-84
2021/09/06 02:32:18;;;;;;;;;;;;;;;;;;2085077;28;2059;-84
2021/09/06 02:33:38;;;;;;;;;;;;;;;;;;2091459;28;681;-84
2021/09/06 02:34:48;;;;;;;;;;;;;;;;;;2092366;28;1904;-85
2021/09/06 02:35:50;;;;;;;;;;;;;;;;;;2099482;28;1754;-85
2021/09/06 02:36:51;;;;;;;;;;;;;;;;;;2098283;28;2029;-85
2021/09/06 02:37:53;;;;;;;;;;;;;;;;;;2091330;28;1310;-85
2021/09/06 02:38:54;;;;;;;;;;;;;;;;;;2091055;28;1223;-85
2021/09/06 02:39:56;;;;;;;;;;;;;;;;;;2091254;28;2095;-85
2021/09/06 02:40:57;;;;;;;;;;;;;;;;;;2083019;28;948;-85
2021/09/06 02:42:00;;;;;;;;;;;;;;;;;;2084537;28;2089;-85
2021/09/06 02:43:06;;;;;;;;;;;;;;;;;;2083699;28;1142;-85
2021/09/06 02:44:11;;;;;;;;;;;;;;;;;;2082882;28;1578;-85
2021/09/06 02:45:11;;;;;;;;;;;;;;;;;;2086955;28;1975;-85
2021/09/06 02:46:16;;;;;;;;;;;;;;;;;;2083197;28;1447;-84
2021/09/06 02:47:17;;;;;;;;;;;;;;;;;;2083559;28;2110;-84
2021/09/06 02:48:19;;;;;;;;;;;;;;;;;;2082992;28;1444;-84
2021/09/06 02:49:20;;;;;;;;;;;;;;;;;;2083186;28;1914;-84
2021/09/06 02:50:22;;;;;;;;;;;;;;;;;;2082935;28;1345;-84
2021/09/06 02:51:28;;;;;;;;;;;;;;;;;;2090899;28;1172;-85
2021/09/06 02:52:29;;;;;;;;;;;;;;;;;;2088993;28;2070;-85
2021/09/06 02:53:31;;;;;;;;;;;;;;;;;;2090862;28;1502;-84
2021/09/06 02:54:31;;;;;;;;;;;;;;;;;;2091580;28;1290;-84
2021/09/06 02:55:33;;;;;;;;;;;;;;;;;;2083298;28;1929;-84
2021/09/06 02:56:34;;;;;;;;;;;;;;;;;;2083199;28;1429;-84
2021/09/06 02:57:36;;;;;;;;;;;;;;;;;;2082739;28;2051;-84
2021/09/06 02:58:37;;;;;;;;;;;;;;;;;;2082894;28;1389;-86
2021/09/06 02:59:40;;;;;;;;;;;;;;;;;;2082809;28;1328;-84
2021/09/06 03:00:41;;;;;;;;;;;;;;;;;;2082899;28;1227;-84
2021/09/06 03:01:42;;;;;;;;;;;;;;;;;;2082965;28;2042;-85
2021/09/06 03:02:44;;;;;;;;;;;;;;;;;;2099357;28;1338;-84
2021/09/06 03:03:46;;;;;;;;;;;;;;;;;;2090919;28;1604;-84
2021/09/06 03:04:48;;;;;;;;;;;;;;;;;;2090053;28;2065;-85
2021/09/06 03:05:50;;;;;;;;;;;;;;;;;;2082752;28;1313;-85
2021/09/06 03:06:52;;;;;;;;;;;;;;;;;;2090957;28;2053;-84
2021/09/06 03:07:56;;;;;;;;;;;;;;;;;;2082852;28;1828;-83
2021/09/06 03:08:58;;;;;;;;;;;;;;;;;;2083225;28;1590;-84
2021/09/06 03:10:03;;;;;;;;;;;;;;;;;;2090708;28;1912;-83
2021/09/06 03:11:07;;;;;;;;;;;;;;;;;;2083455;28;1376;-84
2021/09/06 03:12:10;;;;;;;;;;;;;;;;;;2090869;28;1341;-83
2021/09/06 03:13:17;;;;;;;;;;;;;;;;;;2083401;28;1368;-84
2021/09/06 03:14:20;;;;;;;;;;;;;;;;;;2082434;28;1401;-84
2021/09/06 03:15:26;;;;;;;;;;;;;;;;;;2087514;28;1927;-85
2021/09/06 03:16:30;;;;;;;;;;;;;;;;;;2083580;28;1307;-84
2021/09/06 03:17:34;;;;;;;;;;;;;;;;;;2089335;28;2039;-84
2021/09/06 03:18:36;;;;;;;;;;;;;;;;;;2082899;28;1322;-84
2021/09/06 03:20:10;;;;;;;;;;;;;;;;;;2078999;28;1882;-85
2021/09/06 03:21:12;;;;;;;;;;;;;;;;;;2091009;28;1363;-84
2021/09/06 03:22:16;;;;;;;;;;;;;;;;;;2094411;28;2136;-84
2021/09/06 03:23:18;;;;;;;;;;;;;;;;;;2091730;28;1336;-83
2021/09/06 03:24:20;;;;;;;;;;;;;;;;;;2090921;28;1381;-85
2021/09/06 03:25:22;;;;;;;;;;;;;;;;;;2093557;28;1992;-84
2021/09/06 03:26:22;;;;;;;;;;;;;;;;;;2091208;28;1321;-84
2021/09/06 03:27:24;;;;;;;;;;;;;;;;;;2090018;28;2049;-87
2021/09/06 03:28:25;;;;;;;;;;;;;;;;;;2090767;28;1306;-84
2021/09/06 03:29:27;;;;;;;;;;;;;;;;;;2082401;28;1910;-84
2021/09/06 03:30:29;;;;;;;;;;;;;;;;;;2088190;28;1886;-84
2021/09/06 03:31:32;;;;;;;;;;;;;;;;;;2090958;28;1599;-85
2021/09/06 03:32:32;;;;;;;;;;;;;;;;;;2082797;28;1267;-84
2021/09/06 03:33:35;;;;;;;;;;;;;;;;;;2083061;28;1373;-84
2021/09/06 03:34:35;;;;;;;;;;;;;;;;;;2082962;28;1238;-84
2021/09/06 03:35:42;;;;;;;;;;;;;;;;;;2089209;28;2095;-84
2021/09/06 03:36:44;;;;;;;;;;;;;;;;;;2090979;28;2057;-85
2021/09/06 03:37:49;;;;;;;;;;;;;;;;;;2091214;28;1144;-85
2021/09/06 03:38:56;;;;;;;;;;;;;;;;;;2091686;28;1389;-85
2021/09/06 03:40:01;;;;;;;;;;;;;;;;;;2090715;28;1901;-85
2021/09/06 03:41:04;;;;;;;;;;;;;;;;;;2082586;28;1377;-83
2021/09/06 03:42:09;;;;;;;;;;;;;;;;;;2082355;28;2071;-83
2021/09/06 03:43:16;;;;;;;;;;;;;;;;;;2083469;28;1404;-82
2021/09/06 03:44:18;;;;;;;;;;;;;;;;;;2082351;28;1306;-82
2021/09/06 03:45:20;;;;;;;;;;;;;;;;;;2087317;28;1963;-82
2021/09/06 03:46:27;;;;;;;;;;;;;;;;;;2091399;28;1439;-83
2021/09/06 03:47:33;;;;;;;;;;;;;;;;;;2091082;28;1259;-83
2021/09/06 03:48:35;;;;;;;;;;;;;;;;;;2098500;28;1385;-83
2021/09/06 03:49:41;;;;;;;;;;;;;;;;;;2090099;28;1957;-83
2021/09/06 03:50:43;;;;;;;;;;;;;;;;;;2091105;28;1335;-83
2021/09/06 03:51:46;;;;;;;;;;;;;;;;;;2090677;28;2029;-83
2021/09/06 03:52:50;;;;;;;;;;;;;;;;;;2083111;28;1267;-83
2021/09/06 03:53:55;;;;;;;;;;;;;;;;;;2090757;28;1428;-83
2021/09/06 03:54:58;;;;;;;;;;;;;;;;;;2091193;28;1904;-83
2021/09/06 03:56:01;;;;;;;;;;;;;;;;;;2092202;28;1391;-83
2021/09/06 03:57:07;;;;;;;;;;;;;;;;;;2086607;28;1876;-83
2021/09/06 03:58:10;;;;;;;;;;;;;;;;;;2084075;28;1326;-83
2021/09/06 03:59:13;;;;;;;;;;;;;;;;;;2084064;28;1314;-83
2021/09/06 04:00:18;;;;;;;;;;;;;;;;;;2084395;28;1611;-83
2021/09/06 04:01:20;;;;;;;;;;;;;;;;;;2092427;28;918;-83
2021/09/06 04:02:25;;;;;;;;;;;;;;;;;;2092469;28;1290;-83
2021/09/06 04:03:28;;;;;;;;;;;;;;;;;;2084302;28;1189;-83
2021/09/06 04:04:31;;;;;;;;;;;;;;;;;;2084221;28;1243;-83
2021/09/06 04:05:36;;;;;;;;;;;;;;;;;;2091581;28;1858;-82
2021/09/06 04:06:39;;;;;;;;;;;;;;;;;;2092205;28;1330;-83
2021/09/06 04:07:46;;;;;;;;;;;;;;;;;;2100214;28;1203;-83
2021/09/06 04:08:47;;;;;;;;;;;;;;;;;;2092143;28;1530;-83
2021/09/06 04:09:50;;;;;;;;;;;;;;;;;;2090766;28;1979;-83
2021/09/06 04:10:51;;;;;;;;;;;;;;;;;;2091875;28;1542;-82
2021/09/06 04:11:56;;;;;;;;;;;;;;;;;;2092255;28;1487;-83
2021/09/06 04:12:57;;;;;;;;;;;;;;;;;;2083939;28;1353;-83
2021/09/06 04:14:00;;;;;;;;;;;;;;;;;;2084104;28;1231;-83
2021/09/06 04:15:05;;;;;;;;;;;;;;;;;;2084271;28;1641;-83
2021/09/06 04:16:09;;;;;;;;;;;;;;;;;;2084336;28;1410;-83
2021/09/06 04:17:11;;;;;;;;;;;;;;;;;;2084130;28;1215;-83
2021/09/06 04:18:18;;;;;;;;;;;;;;;;;;2084251;28;1388;-83
2021/09/06 04:19:19;;;;;;;;;;;;;;;;;;2092339;28;1332;-82
2021/09/06 04:20:22;;;;;;;;;;;;;;;;;;2084694;28;1874;-83
2021/09/06 04:21:23;;;;;;;;;;;;;;;;;;2084996;28;1270;-84
2021/09/06 04:22:25;;;;;;;;;;;;;;;;;;2098612;28;2060;-82
2021/09/06 04:23:26;;;;;;;;;;;;;;;;;;2093109;28;1312;-82
2021/09/06 04:24:31;;;;;;;;;;;;;;;;;;2100949;28;1397;-82
2021/09/06 04:25:33;;;;;;;;;;;;;;;;;;2093269;28;1550;-83
2021/09/06 04:26:36;;;;;;;;;;;;;;;;;;2103995;28;1671;-82
2021/09/06 04:27:39;;;;;;;;;;;;;;;;;;2094841;28;2148;-83
2021/09/06 04:28:46;;;;;;;;;;;;;;;;;;2095450;28;1447;-82
2021/09/06 04:29:47;;;;;;;;;;;;;;;;;;2087317;28;1918;-82
2021/09/06 04:30:51;;;;;;;;;;;;;;;;;;2086866;28;1642;-82
2021/09/06 04:32:02;;;;;;;;;;;;;;;;;;2085812;28;1990;-84
2021/09/06 04:33:03;;;;;;;;;;;;;;;;;;2084262;28;1750;-84
2021/09/06 04:34:06;;;;;;;;;;;;;;;;;;2083956;28;2024;-84
2021/09/06 04:35:07;;;;;;;;;;;;;;;;;;2086521;28;1843;-83
2021/09/06 04:36:09;;;;;;;;;;;;;;;;;;2083815;28;1324;-83
2021/09/06 04:37:15;;;;;;;;;;;;;;;;;;2088023;28;1877;-83
2021/09/06 04:38:20;;;;;;;;;;;;;;;;;;2092407;28;1482;-83
2021/09/06 04:39:21;;;;;;;;;;;;;;;;;;2099999;28;1341;-83
2021/09/06 04:40:24;;;;;;;;;;;;;;;;;;2083841;28;1283;-82
2021/09/06 04:41:28;;;;;;;;;;;;;;;;;;2092326;28;1826;-83
2021/09/06 04:42:30;;;;;;;;;;;;;;;;;;2098684;28;1903;-83
2021/09/06 04:43:34;;;;;;;;;;;;;;;;;;2092232;28;1532;-83
2021/09/06 04:44:39;;;;;;;;;;;;;;;;;;2092544;28;1274;-83
2021/09/06 04:45:41;;;;;;;;;;;;;;;;;;2091454;28;1438;-82
2021/09/06 04:46:45;;;;;;;;;;;;;;;;;;2099752;28;2093;-83
2021/09/06 04:47:48;;;;;;;;;;;;;;;;;;2083878;28;1422;-82
2021/09/06 04:48:51;;;;;;;;;;;;;;;;;;2083668;28;1218;-83
2021/09/06 04:49:55;;;;;;;;;;;;;;;;;;2085619;28;1906;-83
2021/09/06 04:50:58;;;;;;;;;;;;;;;;;;2091947;28;1421;-83
2021/09/06 04:52:03;;;;;;;;;;;;;;;;;;2084080;28;1700;-83
2021/09/06 04:53:05;;;;;;;;;;;;;;;;;;2083340;28;1189;-83
2021/09/06 04:54:08;;;;;;;;;;;;;;;;;;2083440;28;1390;-82
2021/09/06 04:55:10;;;;;;;;;;;;;;;;;;2083843;28;1197;-83
2021/09/06 04:56:15;;;;;;;;;;;;;;;;;;2091747;28;1417;-81
2021/09/06 04:57:17;;;;;;;;;;;;;;;;;;2091591;28;2062;-82
2021/09/06 04:58:21;;;;;;;;;;;;;;;;;;2092130;28;1524;-83
2021/09/06 04:59:22;;;;;;;;;;;;;;;;;;2091947;28;1298;-83
2021/09/06 05:00:26;;;;;;;;;;;;;;;;;;2088549;28;1851;-83
2021/09/06 05:01:30;;;;;;;;;;;;;;;;;;2091881;28;1623;-83
2021/09/06 05:02:32;;;;;;;;;;;;;;;;;;2091536;28;2137;-82
2021/09/06 05:03:37;;;;;;;;;;;;;;;;;;2092017;28;1761;-82
2021/09/06 05:04:42;;;;;;;;;;;;;;;;;;2099803;28;1829;-83
2021/09/06 05:05:45;;;;;;;;;;;;;;;;;;2083524;28;1314;-82
2021/09/06 05:06:49;;;;;;;;;;;;;;;;;;2083030;28;2016;-83
2021/09/06 05:07:53;;;;;;;;;;;;;;;;;;2084133;28;1442;-81
2021/09/06 05:08:57;;;;;;;;;;;;;;;;;;2083728;28;1403;-82
2021/09/06 05:09:58;;;;;;;;;;;;;;;;;;2085143;28;1981;-83
2021/09/06 05:11:02;;;;;;;;;;;;;;;;;;2092179;28;1688;-83
2021/09/06 05:12:05;;;;;;;;;;;;;;;;;;2099283;28;2105;-83
2021/09/06 05:13:11;;;;;;;;;;;;;;;;;;2091587;28;1659;-82
2021/09/06 05:14:15;;;;;;;;;;;;;;;;;;2083445;28;1320;-83
2021/09/06 05:15:18;;;;;;;;;;;;;;;;;;2083257;28;1862;-83
2021/09/06 05:16:21;;;;;;;;;;;;;;;;;;2083533;28;1279;-84
2021/09/06 05:17:25;;;;;;;;;;;;;;;;;;2088720;28;2015;-84
2021/09/06 05:18:28;;;;;;;;;;;;;;;;;;2100121;28;1781;-83
2021/09/06 05:19:31;;;;;;;;;;;;;;;;;;2091683;28;1338;-83
2021/09/06 05:20:33;;;;;;;;;;;;;;;;;;2083678;28;1999;-83
2021/09/06 05:21:36;;;;;;;;;;;;;;;;;;2083266;28;1242;-83
2021/09/06 05:22:40;;;;;;;;;;;;;;;;;;2091170;28;2130;-82
2021/09/06 05:23:45;;;;;;;;;;;;;;;;;;2091406;28;1934;-82
2021/09/06 05:24:53;;;;;;;;;;;;;;;;;;2091381;28;1940;-82
2021/09/06 05:25:56;;;;;;;;;;;;;;;;;;2083946;28;1261;-82
2021/09/06 05:26:59;;;;;;;;;;;;;;;;;;2091538;28;2077;-83
2021/09/06 05:28:01;;;;;;;;;;;;;;;;;;2091205;28;1902;-83
2021/09/06 05:29:02;;;;;;;;;;;;;;;;;;2091897;28;1273;-83
2021/09/06 05:30:04;;;;;;;;;;;;;;;;;;2096324;28;1995;-83
2021/09/06 05:31:10;;;;;;;;;;;;;;;;;;2091916;28;1695;-83
2021/09/06 05:32:15;;;;;;;;;;;;;;;;;;2098832;28;2025;-83
2021/09/06 05:33:17;;;;;;;;;;;;;;;;;;2091618;28;1341;-83
2021/09/06 05:34:22;;;;;;;;;;;;;;;;;;2083900;28;1318;-82
2021/09/06 05:35:24;;;;;;;;;;;;;;;;;;2088257;28;1878;-85
2021/09/06 05:36:27;;;;;;;;;;;;;;;;;;2091923;28;1477;-82
2021/09/06 05:37:34;;;;;;;;;;;;;;;;;;2091468;28;2188;-82
2021/09/06 05:38:35;;;;;;;;;;;;;;;;;;2091529;28;1525;-82
2021/09/06 05:39:56;;;;;;;;;;;;;;;;;;2092401;28;2006;-83
2021/09/06 05:40:56;;;;;;;;;;;;;;;;;;2099880;28;1171;-82
2021/09/06 05:41:58;;;;;;;;;;;;;;;;;;2096835;28;2041;-82
2021/09/06 05:43:00;;;;;;;;;;;;;;;;;;2083387;28;1201;-82
2021/09/06 05:44:04;;;;;;;;;;;;;;;;;;2082870;28;1418;-83
2021/09/06 05:45:08;;;;;;;;;;;;;;;;;;2090294;28;1902;-83
2021/09/06 05:46:13;;;;;;;;;;;;;;;;;;2083439;28;1428;-83
2021/09/06 05:47:14;;;;;;;;;;;;;;;;;;2086919;28;1836;-82
2021/09/06 05:48:18;;;;;;;;;;;;;;;;;;2090928;28;1294;-83
2021/09/06 05:49:20;;;;;;;;;;;;;;;;;;2082398;28;1207;-82
2021/09/06 05:50:25;;;;;;;;;;;;;;;;;;2084212;28;1903;-82
2021/09/06 05:51:54;;;;;;;;;;;;;;;;;;2073204;28;2051;-83
2021/09/06 05:53:04;;;;;;;;;;;;;;;;;;2099728;28;1432;-82
2021/09/06 05:54:05;;;;;;;;;;;;;;;;;;2091326;28;1550;-82
2021/09/06 05:55:06;;;;;;;;;;;;;;;;;;2086760;28;1913;-82
2021/09/06 05:56:08;;;;;;;;;;;;;;;;;;2082908;28;1457;-83
2021/09/06 05:57:10;;;;;;;;;;;;;;;;;;2086648;28;1907;-83
2021/09/06 05:58:11;;;;;;;;;;;;;;;;;;2091440;28;1251;-83
2021/09/06 05:59:13;;;;;;;;;;;;;;;;;;2083036;28;1833;-83
2021/09/06 06:00:14;;;;;;;;;;;;;;;;;;2086888;28;1866;-83
2021/09/06 06:01:20;;;;;;;;;;;;;;;;;;2092031;28;1669;-83
2021/09/06 06:02:21;;;;;;;;;;;;;;;;;;2094156;28;2088;-82
2021/09/06 06:03:23;;;;;;;;;;;;;;;;;;2082662;28;1818;-83
2021/09/06 06:04:24;;;;;;;;;;;;;;;;;;2091557;28;1227;-82
2021/09/06 06:05:33;;;;;;;;;;;;;;;;;;2091130;28;1929;-83
2021/09/06 06:06:33;;;;;;;;;;;;;;;;;;2083125;28;1279;-83
2021/09/06 06:07:37;;;;;;;;;;;;;;;;;;2090164;28;2014;-83
2021/09/06 06:08:40;;;;;;;;;;;;;;;;;;2091396;28;1254;-82
2021/09/06 06:09:42;;;;;;;;;;;;;;;;;;2090944;28;1960;-82
2021/09/06 06:10:44;;;;;;;;;;;;;;;;;;2090417;28;1914;-84
2021/09/06 06:11:46;;;;;;;;;;;;;;;;;;2090588;28;2021;-83
2021/09/06 06:12:53;;;;;;;;;;;;;;;;;;2083801;28;1296;-83
2021/09/06 06:13:53;;;;;;;;;;;;;;;;;;2082905;28;1515;-82
2021/09/06 06:14:56;;;;;;;;;;;;;;;;;;2092411;28;1893;-83
2021/09/06 06:15:57;;;;;;;;;;;;;;;;;;2090923;28;1264;-83
2021/09/06 06:17:01;;;;;;;;;;;;;;;;;;2090692;28;2177;-83
2021/09/06 06:18:10;;;;;;;;;;;;;;;;;;2099277;28;1157;-82
2021/09/06 06:19:12;;;;;;;;;;;;;;;;;;2091261;28;1231;-83
2021/09/06 06:20:33;;;;;;;;;;;;;;;;;;2094475;28;1936;-82
2021/09/06 06:21:55;;;;;;;;;;;;;;;;;;2092144;28;2010;-82
2021/09/06 06:23:26;;;;;;;;;;;;;;;;;;2099623;28;1269;-83
2021/09/06 06:24:46;;;;;;;;;;;;;;;;;;2098679;28;1956;-82
2021/09/06 06:26:05;;;;;;;;;;;;;;;;;;2091089;28;1254;-82
2021/09/06 06:27:06;;;;;;;;;;;;;;;;;;2085694;28;1848;-82
2021/09/06 06:28:08;;;;;;;;;;;;;;;;;;2090885;28;1783;-82
2021/09/06 06:29:09;;;;;;;;;;;;;;;;;;2091043;28;1383;-83
2021/09/06 06:30:12;;;;;;;;;;;;;;;;;;2085798;28;1855;-82
2021/09/06 06:31:14;;;;;;;;;;;;;;;;;;2090797;28;1910;-83
2021/09/06 06:32:15;;;;;;;;;;;;;;;;;;2089849;28;2067;-83
2021/09/06 06:33:18;;;;;;;;;;;;;;;;;;2091232;28;1553;-83
2021/09/06 06:34:20;;;;;;;;;;;;;;;;;;2082944;28;1563;-82
2021/09/06 06:35:22;;;;;;;;;;;;;;;;;;2087591;28;1333;-82
2021/09/06 06:36:23;;;;;;;;;;;;;;;;;;2082834;28;1172;-82
2021/09/06 06:37:25;;;;;;;;;;;;;;;;;;2088786;28;1293;-83
2021/09/06 06:38:27;;;;;;;;;;;;;;;;;;2091123;28;1276;-82
2021/09/06 06:39:31;;;;;;;;;;;;;;;;;;2083534;28;1441;-81
2021/09/06 06:40:35;;;;;;;;;;;;;;;;;;2083350;28;1551;-81
2021/09/06 06:41:39;;;;;;;;;;;;;;;;;;2083424;28;1351;-81
2021/09/06 06:42:44;;;;;;;;;;;;;;;;;;2083925;28;1440;-82
2021/09/06 06:43:49;;;;;;;;;;;;;;;;;;2091158;28;1590;-82
2021/09/06 06:44:53;;;;;;;;;;;;;;;;;;2091443;28;1207;-81
2021/09/06 06:45:55;;;;;;;;;;;;;;;;;;2083489;28;1698;-81
2021/09/06 06:47:00;;;;;;;;;;;;;;;;;;2081669;28;1383;-79
2021/09/06 06:48:02;;;;;;;;;;;;;;;;;;2091066;28;1432;-79
2021/09/06 06:49:04;;;;;;;;;;;;;;;;;;2091593;28;1361;-79
2021/09/06 06:50:09;;;;;;;;;;;;;;;;;;2090239;28;1338;-79
2021/09/06 06:51:13;;;;;;;;;;;;;;;;;;2091344;28;1971;-79
2021/09/06 06:52:17;;;;;;;;;;;;;;;;;;2083518;28;1204;-79
2021/09/06 06:53:21;;;;;;;;;;;;;;;;;;2091609;28;1521;-78
2021/09/06 06:54:25;;;;;;;;;;;;;;;;;;2091120;28;1573;-79
2021/09/06 06:55:27;;;;;;;;;;;;;;;;;;2096979;28;2064;-79
2021/09/06 06:56:33;;;;;;;;;;;;;;;;;;2091423;28;1337;-79
2021/09/06 06:57:40;;;;;;;;;;;;;;;;;;2083587;28;1178;-79
2021/09/06 06:58:43;;;;;;;;;;;;;;;;;;2083066;28;1419;-80
2021/09/06 06:59:48;;;;;;;;;;;;;;;;;;2083300;28;1528;-80
2021/09/06 07:00:50;;;;;;;;;;;;;;;;;;2082928;28;1448;-80
2021/09/06 07:01:55;;;;;;;;;;;;;;;;;;2085007;28;1398;-79
2021/09/06 07:02:58;;;;;;;;;;;;;;;;;;2085153;28;1349;-79
2021/09/06 07:04:00;;;;;;;;;;;;;;;;;;2079361;28;1693;-79
2021/09/06 07:05:05;;;;;;;;;;;;;;;;;;2083186;28;1635;-79
2021/09/06 07:06:11;;;;;;;;;;;;;;;;;;2082676;28;1293;-80
2021/09/06 07:07:13;;;;;;;;;;;;;;;;;;2087576;28;1326;-81
2021/09/06 07:08:17;;;;;;;;;;;;;;;;;;2091090;28;1836;-79
2021/09/06 07:09:19;;;;;;;;;;;;;;;;;;2094797;28;1319;-79
2021/09/06 07:10:21;;;;;;;;;;;;;;;;;;2096003;28;1710;-79
2021/09/06 07:11:24;;;;;;;;;;;;;;;;;;2091049;28;1968;-80
2021/09/06 07:12:27;;;;;;;;;;;;;;;;;;2087201;28;1283;-78
2021/09/06 07:13:28;;;;;;;;;;;;;;;;;;2090884;28;1394;-79
2021/09/06 07:14:30;;;;;;;;;;;;;;;;;;2090665;28;1545;-79
2021/09/06 07:15:32;;;;;;;;;;;;;;;;;;2090753;28;1598;-79
2021/09/06 07:16:35;;;;;;;;;;;;;;;;;;2091503;28;1435;-79
2021/09/06 07:17:36;;;;;;;;;;;;;;;;;;2098731;28;1283;-79
2021/09/06 07:18:37;;;;;;;;;;;;;;;;;;2090330;28;1398;-79
2021/09/06 07:19:38;;;;;;;;;;;;;;;;;;2088836;28;1383;-78
2021/09/06 07:20:40;;;;;;;;;;;;;;;;;;2092499;28;1778;-78
2021/09/06 07:21:40;;;;;;;;;;;;;;;;;;2090445;28;1456;-78
2021/09/06 07:22:43;;;;;;;;;;;;;;;;;;2090377;28;1287;-78
2021/09/06 07:23:43;;;;;;;;;;;;;;;;;;2090493;28;1367;-79